Aérodrome :
LOGIN :

S'inscrire | Disclaimer

   EN    FR    IT 

 










Légende :    VFR   VFR Marginal   IFR   IFR Intensif   IFR Très Intensif
Visi : 
Plafond : 
>= 8 km
>= 3000ft
5 à 8 km
1000 à 3000 ft
1500m à 5 km
500 à 1000 ft
800 à 1500m
200 à 500 ft
< 800m
< 200 ft
Symboles :   Orages  Brouillard  Fortes neiges  Fortes précipitations  Vent > 20 kt
SIGMETs :   Divers  Orages  Givrage  Turbulence  Onde Orograph.  Cendres Volcan.







- Altitude de l'aérodrome : 1768 ft


LEHC - Huesca Pirineos

DERNIER METAR :
  • 211000Z 08004KT 030V120 9999 SCT035 BKN045 11/06 Q1014

METARs EXPIRÉS :
  • 210930Z 04003KT 360V070 9999 SCT045 SCT070 11/07 Q1014
  • 210900Z 05004KT 9999 SCT040 SCT050 11/07 Q1015
  • 210830Z 03007KT 360V060 9999 SCT040 BKN050 11/06 Q1015
  • 210800Z 04006KT 9999 FEW055 SCT070 11/07 Q1015
  • 210730Z 03005KT 360V060 9999 SCT055 BKN070 11/07 Q1015

TAF TAF LEHC
Valide du 21 à 09h jusqu'au 22 à 09h UTC


210800Z 2109/2209 VRB05KT 9999 FEW040 SCT050 TX15/2114Z TN10/2206Z
TEMPO 2117/2120 33010KT
TEMPO 2109/2124 4000 RA BKN020
Pas de NOTAMs connus pour ce terrain.



MET'MAP, la Météo Aéronautique d'un coup d'oeil ! - Copyright ORBIFLY Décembre 2007 - Disclaimer

ORBIFLY MET'MAP TEAM :

Programmation & Développement : Alexandra Zaïnal
Conception & Développement : Baudouin d'Aumeries
Co-Programmation & Développement : Marc-Olivier Méhu
Soutien technique & logistique : Manuel Goepfert

Contact : metmap@orbifly.com




SOURCES & CREDITS :

   NOAA